createdAt,value
2018-06-05T00:01:52.406Z,68.13
2018-06-05T00:04:23.637Z,68.89
2018-06-05T00:06:54.396Z,68.12
2018-06-05T00:09:24.852Z,67.60
2018-06-05T00:11:55.775Z,68.15
2018-06-05T00:14:25.996Z,68.39
2018-06-05T00:16:57.543Z,68.05
2018-06-05T00:19:28.514Z,67.63
2018-06-05T00:22:00.552Z,66.94
2018-06-05T00:24:31.101Z,67.28
2018-06-05T00:27:01.816Z,66.53
2018-06-05T00:29:32.253Z,67.13
2018-06-05T00:32:02.733Z,67.28
2018-06-05T00:34:33.388Z,67.21
2018-06-05T00:37:03.958Z,67.13
2018-06-05T00:39:34.601Z,67.65
2018-06-05T00:42:06.315Z,68.75
2018-06-05T00:44:36.945Z,68.83
2018-06-05T00:47:07.543Z,68.65
2018-06-05T00:49:38.855Z,69.83
2018-06-05T00:52:10.888Z,69.38
2018-06-05T00:54:41.342Z,70.07
2018-06-05T00:57:12.308Z,70.03
2018-06-05T00:59:42.898Z,69.46
2018-06-05T01:02:13.353Z,70.10
2018-06-05T01:04:44.385Z,70.73
2018-06-05T01:07:15.369Z,70.34
2018-06-05T01:09:46.077Z,70.26
2018-06-05T01:12:16.693Z,70.18
2018-06-05T01:14:47.327Z,69.80
2018-06-05T01:17:19.049Z,69.68
2018-06-05T01:19:50.718Z,69.00
2018-06-05T01:22:21.318Z,68.01
2018-06-05T01:24:52.106Z,67.43
2018-06-05T01:27:23.680Z,67.64
2018-06-05T01:29:54.127Z,67.21
2018-06-05T01:32:25.933Z,67.39
2018-06-05T01:34:56.654Z,66.94
2018-06-05T01:37:27.243Z,66.38
2018-06-05T01:39:57.745Z,67.01
2018-06-05T01:42:28.664Z,67.80
2018-06-05T01:44:59.758Z,67.91
2018-06-05T01:47:30.332Z,68.44
2018-06-05T01:50:01.258Z,68.88
2018-06-05T01:52:32.972Z,69.19
2018-06-05T01:55:03.876Z,69.14
2018-06-05T01:57:35.522Z,70.21
2018-06-05T02:00:06.069Z,69.87
2018-06-05T02:02:36.541Z,70.28
2018-06-05T02:05:07.844Z,70.21
2018-06-05T02:07:38.469Z,70.91
2018-06-05T02:10:08.964Z,71.29
2018-06-05T02:12:39.585Z,71.15
2018-06-05T02:15:10.584Z,71.56
2018-06-05T02:17:41.068Z,71.68
2018-06-05T02:20:11.652Z,72.64
2018-06-05T02:22:42.104Z,72.50
2018-06-05T02:25:12.603Z,73.27
2018-06-05T02:27:43.358Z,72.77
2018-06-05T02:30:13.840Z,72.93
2018-06-05T02:32:44.298Z,73.47
2018-06-05T02:35:15.081Z,73.17
2018-06-05T02:37:46.769Z,73.65
2018-06-05T02:40:17.304Z,73.69
2018-06-05T02:42:47.805Z,72.88
2018-06-05T02:45:18.820Z,73.55
2018-06-05T02:47:50.180Z,73.48
2018-06-05T02:50:20.743Z,72.67
2018-06-05T02:52:51.220Z,72.04
2018-06-05T02:55:21.852Z,71.61
2018-06-05T02:57:52.769Z,71.31
2018-06-05T03:00:23.234Z,71.69
2018-06-05T03:02:53.741Z,72.43
2018-06-05T03:05:24.387Z,73.50
2018-06-05T03:07:54.892Z,73.36
2018-06-05T03:10:25.372Z,73.67
2018-06-05T03:12:56.487Z,73.21
2018-06-05T03:15:27.151Z,73.61
2018-06-05T03:17:58.832Z,73.55
2018-06-05T03:20:29.814Z,74.16
2018-06-05T03:23:01.277Z,73.52
2018-06-05T03:25:31.748Z,73.73
2018-06-05T03:28:02.247Z,73.66
2018-06-05T03:30:33.060Z,73.70
2018-06-05T03:33:04.034Z,74.93
2018-06-05T03:35:34.692Z,74.94
2018-06-05T03:38:05.604Z,75.18
2018-06-05T03:40:36.215Z,75.44
2018-06-05T03:43:07.091Z,76.20
2018-06-05T03:45:38.119Z,76.45
2018-06-05T03:48:08.615Z,76.36
2018-06-05T03:50:39.733Z,75.91
2018-06-05T03:53:10.492Z,75.39
2018-06-05T03:55:40.976Z,74.91
2018-06-05T03:58:11.401Z,74.03
2018-06-05T04:00:42.137Z,74.11
2018-06-05T04:03:12.878Z,74.06
2018-06-05T04:05:43.797Z,74.03
2018-06-05T04:08:14.309Z,73.55
2018-06-05T04:10:45.067Z,73.10
2018-06-05T04:13:15.582Z,73.27
2018-06-05T04:15:46.160Z,73.15
2018-06-05T04:18:16.598Z,72.02
2018-06-05T04:20:47.060Z,71.94
2018-06-05T04:23:17.300Z,71.86
2018-06-05T04:25:47.715Z,72.07
2018-06-05T04:28:19.708Z,72.04
2018-06-05T04:30:50.917Z,71.58
2018-06-05T04:33:21.519Z,71.76
2018-06-05T04:35:51.645Z,71.96
2018-06-05T04:38:22.047Z,73.04
2018-06-05T04:40:52.841Z,72.99
2018-06-05T04:43:23.874Z,73.53
2018-06-05T04:45:54.722Z,73.48
2018-06-05T04:48:25.379Z,71.64
2018-06-05T04:50:56.576Z,71.96
2018-06-05T04:53:27.349Z,71.66
2018-06-05T04:55:57.937Z,70.49
2018-06-05T04:58:28.580Z,69.44
2018-06-05T05:00:59.086Z,68.33
2018-06-05T05:03:29.769Z,69.42
2018-06-05T05:06:00.647Z,68.48
2018-06-05T05:08:31.288Z,68.22
2018-06-05T05:11:02.159Z,67.43
2018-06-05T05:13:32.716Z,67.92
2018-06-05T05:16:03.730Z,67.70
2018-06-05T05:18:34.114Z,65.09
2018-06-05T05:21:04.837Z,65.51
2018-06-05T05:23:35.377Z,65.00
2018-06-05T05:26:05.986Z,65.04
2018-06-05T05:28:36.750Z,64.86
2018-06-05T05:31:07.274Z,63.87
2018-06-05T05:33:39.013Z,63.75
2018-06-05T05:36:09.594Z,63.92
2018-06-05T05:38:40.518Z,63.02
2018-06-05T05:41:11.358Z,64.25
2018-06-05T05:43:41.803Z,64.10
2018-06-05T05:46:12.463Z,63.91
2018-06-05T05:48:43.292Z,65.09
2018-06-05T05:51:13.889Z,65.84
2018-06-05T05:53:45.947Z,65.68
2018-06-05T05:56:16.609Z,64.20
2018-06-05T05:58:47.125Z,64.57
2018-06-05T06:01:17.982Z,63.84
2018-06-05T06:03:48.694Z,63.59
2018-06-05T06:06:19.165Z,63.61
2018-06-05T06:08:50.643Z,64.39
2018-06-05T06:11:21.045Z,64.12
2018-06-05T06:13:51.665Z,63.75
2018-06-05T06:16:22.319Z,63.78
2018-06-05T06:18:53.244Z,63.95
2018-06-05T06:21:24.083Z,63.78
2018-06-05T06:23:54.970Z,61.99
2018-06-05T06:26:25.737Z,61.85
2018-06-05T06:28:56.496Z,62.45
2018-06-05T06:31:26.931Z,62.54
2018-06-05T06:33:57.211Z,60.67
2018-06-05T06:36:27.751Z,61.02
2018-06-05T06:38:58.652Z,61.21
2018-06-05T06:41:29.199Z,59.56
2018-06-05T06:43:59.850Z,59.06
2018-06-05T06:46:30.468Z,59.22
2018-06-05T06:49:00.978Z,58.72
2018-06-05T06:51:31.476Z,58.11
2018-06-05T06:54:02.221Z,57.34
2018-06-05T06:56:32.860Z,58.60
2018-06-05T06:59:04.543Z,58.18
2018-06-05T07:01:35.286Z,56.55
2018-06-05T07:04:06.362Z,56.48
2018-06-05T07:06:36.846Z,57.48
2018-06-05T07:09:09.248Z,56.88
2018-06-05T07:11:39.864Z,56.73
2018-06-05T07:14:10.789Z,55.51
2018-06-05T07:16:41.279Z,55.50
2018-06-05T07:19:11.551Z,55.38
2018-06-05T07:21:42.130Z,55.75
2018-06-05T07:24:12.801Z,54.52
2018-06-05T07:26:43.849Z,54.25
2018-06-05T07:29:14.535Z,54.47
2018-06-05T07:31:45.117Z,54.67
2018-06-05T07:34:15.609Z,54.77
2018-06-05T07:36:46.148Z,53.79
2018-06-05T07:39:16.975Z,54.60
2018-06-05T07:41:47.612Z,54.99
2018-06-05T07:44:18.240Z,53.90
2018-06-05T07:46:48.639Z,53.67
2018-06-05T07:49:19.539Z,54.19
2018-06-05T07:51:51.255Z,53.41
2018-06-05T07:54:22.005Z,53.27
2018-06-05T07:56:52.536Z,53.35
2018-06-05T07:59:24.526Z,54.46
2018-06-05T08:01:55.125Z,53.66
2018-06-05T08:04:27.009Z,53.58
2018-06-05T08:06:58.312Z,53.55
2018-06-05T08:09:29.375Z,53.41
2018-06-05T08:11:59.955Z,53.68
2018-06-05T08:14:30.839Z,53.87
2018-06-05T08:17:01.200Z,54.10
2018-06-05T08:19:32.168Z,53.51
2018-06-05T08:22:02.831Z,52.20
2018-06-05T08:24:34.390Z,52.06
2018-06-05T08:27:04.600Z,52.97
2018-06-05T08:29:34.645Z,52.27
2018-06-05T08:32:05.284Z,52.67
2018-06-05T08:34:35.893Z,52.11
2018-06-05T08:37:07.081Z,52.28
2018-06-05T08:39:37.660Z,52.33
2018-06-05T08:42:08.819Z,53.72
2018-06-05T08:44:39.077Z,51.36
2018-06-05T08:47:10.272Z,52.44
2018-06-05T08:49:40.498Z,51.41
2018-06-05T08:52:11.162Z,49.84
2018-06-05T08:57:12.069Z,50.51
2018-06-05T08:59:42.639Z,49.34
2018-06-05T09:02:13.378Z,49.92
2018-06-05T09:04:43.850Z,49.88
2018-06-05T09:07:14.483Z,48.98
2018-06-05T09:09:44.950Z,49.00
2018-06-05T09:12:15.440Z,49.10
2018-06-05T09:14:46.013Z,49.30
2018-06-05T09:17:17.640Z,48.81
2018-06-05T09:19:48.200Z,47.96
2018-06-05T09:22:19.959Z,48.39
2018-06-05T09:24:51.529Z,47.58
2018-06-05T09:27:22.088Z,47.72
2018-06-05T09:29:52.756Z,48.16
2018-06-05T09:32:23.556Z,48.05
2018-06-05T09:34:54.329Z,47.47
2018-06-05T09:37:25.643Z,47.77
2018-06-05T09:39:56.041Z,46.31
2018-06-05T09:42:26.613Z,47.00
2018-06-05T09:44:57.204Z,46.62
2018-06-05T09:47:28.517Z,47.32
2018-06-05T09:49:59.427Z,47.43
2018-06-05T09:52:30.485Z,47.22
2018-06-05T09:55:01.284Z,47.17
2018-06-05T09:57:33.129Z,47.81
2018-06-05T10:00:04.176Z,46.57
2018-06-05T10:02:34.757Z,46.09
2018-06-05T10:05:05.710Z,46.92
2018-06-05T10:07:36.017Z,46.97
2018-06-05T10:10:06.622Z,47.11
2018-06-05T10:12:37.883Z,47.69
2018-06-05T10:15:08.402Z,45.57
2018-06-05T10:17:38.952Z,46.33
2018-06-05T10:20:09.548Z,46.40
2018-06-05T10:22:40.454Z,46.25
2018-06-05T10:25:11.056Z,46.22
2018-06-05T10:27:41.794Z,46.45
2018-06-05T10:30:12.342Z,45.71
2018-06-05T10:32:44.055Z,45.00
2018-06-05T10:35:14.593Z,44.21
2018-06-05T10:37:45.253Z,44.36
2018-06-05T10:40:16.309Z,44.19
2018-06-05T10:42:46.799Z,43.65
2018-06-05T10:45:17.357Z,42.57
2018-06-05T10:47:48.239Z,43.33
2018-06-05T10:50:18.804Z,42.38
2018-06-05T10:52:49.059Z,41.72
2018-06-05T10:55:19.618Z,42.27
2018-06-05T10:57:51.043Z,41.40
2018-06-05T11:00:21.628Z,41.47
2018-06-05T11:02:52.656Z,40.49
2018-06-05T11:05:23.153Z,40.48
2018-06-05T11:07:53.793Z,40.70
2018-06-05T11:10:24.748Z,40.87
2018-06-05T11:12:55.595Z,41.17
2018-06-05T11:15:26.164Z,41.19
2018-06-05T11:17:56.704Z,40.89
2018-06-05T11:20:27.444Z,40.18
2018-06-05T11:22:58.179Z,39.54
2018-06-05T11:25:28.774Z,40.28
2018-06-05T11:27:59.496Z,39.93
2018-06-05T11:30:30.118Z,39.62
2018-06-05T11:33:00.845Z,39.55
2018-06-05T11:35:31.461Z,39.55
2018-06-05T11:38:02.062Z,38.94
2018-06-05T11:40:32.576Z,38.77
2018-06-05T11:43:02.785Z,38.31
2018-06-05T11:45:33.170Z,39.22
2018-06-05T11:48:04.844Z,38.21
2018-06-05T11:50:35.857Z,38.46
2018-06-05T11:53:06.655Z,37.71
2018-06-05T11:55:37.533Z,38.46
2018-06-05T11:58:08.298Z,38.67
2018-06-05T12:00:38.945Z,36.71
2018-06-05T12:03:09.147Z,36.68
2018-06-05T12:05:39.505Z,36.96
2018-06-05T12:08:11.137Z,37.93
2018-06-05T12:10:41.789Z,37.71
2018-06-05T12:13:12.518Z,37.06
2018-06-05T12:15:43.128Z,36.47
2018-06-05T12:18:13.800Z,37.83
2018-06-05T12:20:44.537Z,35.70
2018-06-05T12:23:15.237Z,35.38
2018-06-05T12:25:46.101Z,35.24
2018-06-05T12:28:17.332Z,34.73
2018-06-05T12:30:47.859Z,34.79
2018-06-05T12:33:18.741Z,34.87
2018-06-05T12:35:49.429Z,33.88
2018-06-05T12:38:21.130Z,34.57
2018-06-05T12:40:51.919Z,35.01
2018-06-05T12:43:22.375Z,35.41
2018-06-05T12:45:52.973Z,34.44
2018-06-05T12:48:23.687Z,34.65
2018-06-05T12:50:54.445Z,35.45
2018-06-05T12:53:25.354Z,35.20
2018-06-05T12:55:55.873Z,34.96
2018-06-05T12:58:26.404Z,34.60
2018-06-05T13:00:56.529Z,34.83
2018-06-05T13:03:26.578Z,34.34
2018-06-05T13:05:57.260Z,33.89
2018-06-05T13:08:27.917Z,32.78
2018-06-05T13:10:58.439Z,34.17
2018-06-05T13:13:29.280Z,35.01
2018-06-05T13:15:59.637Z,35.10
2018-06-05T13:18:30.033Z,35.26
2018-06-05T13:21:00.881Z,35.59
2018-06-05T13:23:31.531Z,34.93
2018-06-05T13:26:02.246Z,34.49
2018-06-05T13:28:33.293Z,34.31
2018-06-05T13:31:04.327Z,34.12
2018-06-05T13:33:34.831Z,32.93
2018-06-05T13:36:05.426Z,33.40
2018-06-05T13:38:36.288Z,35.43
2018-06-05T13:41:06.820Z,35.38
2018-06-05T13:43:37.345Z,36.63
2018-06-05T13:46:07.883Z,34.99
2018-06-05T13:48:38.645Z,37.86
2018-06-05T13:51:09.515Z,38.58
2018-06-05T13:53:40.024Z,38.00
2018-06-05T13:56:11.293Z,37.54
2018-06-05T13:58:41.775Z,38.75
2018-06-05T14:01:12.768Z,36.85
2018-06-05T14:03:43.292Z,36.17
2018-06-05T14:06:13.935Z,35.85
2018-06-05T14:08:44.452Z,35.99
2018-06-05T14:11:15.680Z,37.14
2018-06-05T14:13:46.824Z,37.65
2018-06-05T14:16:17.957Z,39.04
2018-06-05T14:18:49.029Z,38.83
2018-06-05T14:21:19.480Z,38.72
2018-06-05T14:23:50.754Z,39.13
2018-06-05T14:26:21.265Z,38.58
2018-06-05T14:28:52.104Z,38.31
2018-06-05T14:31:22.655Z,36.98
2018-06-05T14:33:53.772Z,37.30
2018-06-05T14:36:23.910Z,36.77
2018-06-05T14:38:54.440Z,36.75
2018-06-05T14:41:25.037Z,37.37
2018-06-05T14:43:55.713Z,35.85
2018-06-05T14:46:26.236Z,36.22
2018-06-05T14:48:57.848Z,35.46
2018-06-05T14:51:28.717Z,36.61
2018-06-05T14:53:59.273Z,35.64
2018-06-05T14:56:29.866Z,35.48
2018-06-05T14:59:00.483Z,34.78
2018-06-05T15:01:31.060Z,35.63
2018-06-05T15:04:01.687Z,33.20
2018-06-05T15:06:32.281Z,33.55
2018-06-05T15:09:03.018Z,33.64
2018-06-05T15:11:33.939Z,33.88
2018-06-05T15:14:04.488Z,34.95
2018-06-05T15:16:35.095Z,32.97
2018-06-05T15:19:05.892Z,34.32
2018-06-05T15:21:36.580Z,35.47
2018-06-05T15:24:07.325Z,34.40
2018-06-05T15:26:37.836Z,34.38
2018-06-05T15:29:08.461Z,34.21
2018-06-05T15:31:38.991Z,33.80
2018-06-05T15:34:09.565Z,33.90
2018-06-05T15:36:40.055Z,34.59
2018-06-05T15:39:10.911Z,34.45
2018-06-05T15:41:41.686Z,34.30
2018-06-05T15:44:12.344Z,33.67
2018-06-05T15:46:42.868Z,34.74
2018-06-05T15:49:13.417Z,34.51
2018-06-05T15:51:43.994Z,34.58
2018-06-05T15:54:14.564Z,35.49
2018-06-05T15:56:45.022Z,37.86
2018-06-05T15:59:15.601Z,36.19
2018-06-05T16:01:46.370Z,36.70
2018-06-05T16:04:17.227Z,37.46
2018-06-05T16:06:47.791Z,36.80
2018-06-05T16:09:18.680Z,37.91
2018-06-05T16:11:49.145Z,39.45
2018-06-05T16:14:19.880Z,40.87
2018-06-05T16:16:50.545Z,38.32
2018-06-05T16:19:21.199Z,37.09
2018-06-05T16:21:52.489Z,37.77
2018-06-05T16:24:23.122Z,37.46
2018-06-05T16:26:53.661Z,37.50
2018-06-05T16:29:25.488Z,38.57
2018-06-05T16:31:56.163Z,38.51
2018-06-05T16:34:26.677Z,41.44
2018-06-05T16:36:57.857Z,39.28
2018-06-05T16:39:29.105Z,37.82
2018-06-05T16:41:59.667Z,37.59
2018-06-05T16:44:30.392Z,37.23
2018-06-05T16:47:01.253Z,39.34
2018-06-05T16:49:32.980Z,36.45
2018-06-05T16:52:03.516Z,35.22
2018-06-05T16:54:34.032Z,35.40
2018-06-05T16:57:04.682Z,34.72
2018-06-05T16:59:35.694Z,35.50
2018-06-05T17:02:06.176Z,34.71
2018-06-05T17:04:37.806Z,34.37
2018-06-05T17:07:08.354Z,33.71
2018-06-05T17:09:38.938Z,30.97
2018-06-05T17:12:09.462Z,30.06
2018-06-05T17:14:40.021Z,28.73
2018-06-05T17:17:10.589Z,26.25
2018-06-05T17:19:41.734Z,25.58
2018-06-05T17:22:12.253Z,24.94
2018-06-05T17:24:42.876Z,24.96
2018-06-05T17:27:13.214Z,24.77
2018-06-05T17:29:43.807Z,24.50
2018-06-05T17:32:14.324Z,25.92
2018-06-05T17:34:44.839Z,27.02
2018-06-05T17:37:15.358Z,28.18
2018-06-05T17:39:46.111Z,29.53
2018-06-05T17:42:16.781Z,30.72
2018-06-05T17:44:46.977Z,31.35
2018-06-05T17:47:17.790Z,31.88
2018-06-05T17:49:48.668Z,32.44
2018-06-05T17:52:18.911Z,33.88
2018-06-05T17:54:50.342Z,34.16
2018-06-05T17:57:20.927Z,35.08
2018-06-05T17:59:52.500Z,34.20
2018-06-05T18:02:23.320Z,35.14
2018-06-05T18:04:54.521Z,36.12
2018-06-05T18:07:25.389Z,34.80
2018-06-05T18:09:55.952Z,35.57
2018-06-05T18:12:27.181Z,35.46
2018-06-05T18:14:57.843Z,36.34
2018-06-05T18:17:28.403Z,36.38
2018-06-05T18:19:59.304Z,36.38
2018-06-05T18:22:29.850Z,37.12
2018-06-05T18:25:00.380Z,36.79
2018-06-05T18:27:31.203Z,36.35
2018-06-05T18:30:02.205Z,36.38
2018-06-05T18:32:32.908Z,37.73
2018-06-05T18:35:05.220Z,37.96
2018-06-05T18:37:35.651Z,37.69
2018-06-05T18:40:07.270Z,37.24
2018-06-05T18:42:38.337Z,36.70
2018-06-05T18:45:08.959Z,36.89
2018-06-05T18:47:39.465Z,36.50
2018-06-05T18:50:10.404Z,37.42
2018-06-05T18:52:41.299Z,37.76
2018-06-05T18:55:12.806Z,39.44
2018-06-05T18:57:43.387Z,40.31
2018-06-05T19:00:13.978Z,41.43
2018-06-05T19:02:44.585Z,41.84
2018-06-05T19:05:15.161Z,41.60
2018-06-05T19:07:45.705Z,41.16
2018-06-05T19:10:16.936Z,42.83
2018-06-05T19:12:47.394Z,42.63
2018-06-05T19:15:18.236Z,43.48
2018-06-05T19:17:49.033Z,44.05
2018-06-05T19:20:19.883Z,43.38
2018-06-05T19:22:50.549Z,42.97
2018-06-05T19:25:21.070Z,43.94
2018-06-05T19:27:52.667Z,43.52
2018-06-05T19:30:23.241Z,44.45
2018-06-05T19:32:53.760Z,44.60
2018-06-05T19:35:24.314Z,45.29
2018-06-05T19:37:55.077Z,45.43
2018-06-05T19:40:26.284Z,44.77
2018-06-05T19:42:56.841Z,45.69
2018-06-05T19:45:27.426Z,45.67
2018-06-05T19:47:57.957Z,45.77
2018-06-05T19:50:28.867Z,45.24
2018-06-05T19:52:59.373Z,46.57
2018-06-05T19:55:29.967Z,46.71
2018-06-05T19:58:00.789Z,46.37
2018-06-05T20:00:31.728Z,46.52
2018-06-05T20:03:02.202Z,46.40
2018-06-05T20:05:33.227Z,46.86
2018-06-05T20:08:03.697Z,47.13
2018-06-05T20:10:35.268Z,47.38
2018-06-05T20:13:06.224Z,48.24
2018-06-05T20:15:36.732Z,47.98
2018-06-05T20:18:07.213Z,47.29
2018-06-05T20:20:38.818Z,48.26
2018-06-05T20:23:09.348Z,48.54
2018-06-05T20:25:39.876Z,47.99
2018-06-05T20:28:10.433Z,48.16
2018-06-05T20:30:40.962Z,48.35
2018-06-05T20:33:11.422Z,48.17
2018-06-05T20:35:41.973Z,48.48
2018-06-05T20:38:12.681Z,48.73
2018-06-05T20:40:43.715Z,48.27
2018-06-05T20:43:14.423Z,48.96
2018-06-05T20:45:45.038Z,48.95
2018-06-05T20:48:15.868Z,48.49
2018-06-05T20:50:46.512Z,47.26
2018-06-05T20:53:17.359Z,47.64
2018-06-05T20:55:48.335Z,47.38
2018-06-05T20:58:18.873Z,48.10
2018-06-05T21:00:51.010Z,46.46
2018-06-05T21:03:22.351Z,47.93
2018-06-05T21:05:53.507Z,48.88
2018-06-05T21:08:24.289Z,48.75
2018-06-05T21:10:54.828Z,48.40
2018-06-05T21:13:25.265Z,47.84
2018-06-05T21:15:57.186Z,49.36
2018-06-05T21:18:27.645Z,49.27
2018-06-05T21:20:58.513Z,49.90
2018-06-05T21:23:29.011Z,49.94
2018-06-05T21:25:59.517Z,50.24
2018-06-05T21:28:29.995Z,49.53
2018-06-05T21:31:00.506Z,50.47
2018-06-05T21:33:31.019Z,50.07
2018-06-05T21:36:01.515Z,50.20
2018-06-05T21:38:31.986Z,50.40
2018-06-05T21:41:02.543Z,50.76
2018-06-05T21:43:33.039Z,51.31
2018-06-05T21:46:03.665Z,50.57
2018-06-05T21:48:34.809Z,51.11
2018-06-05T21:51:05.401Z,50.65
2018-06-05T21:53:35.837Z,50.93
2018-06-05T21:56:06.524Z,52.63
2018-06-05T21:58:37.222Z,52.86
2018-06-05T22:01:07.764Z,53.04
2018-06-05T22:03:38.269Z,53.24
2018-06-05T22:06:08.746Z,53.53
2018-06-05T22:08:39.781Z,54.11
2018-06-05T22:11:10.286Z,53.87
2018-06-05T22:13:40.814Z,54.21
2018-06-05T22:16:11.645Z,55.01
2018-06-05T22:18:42.609Z,54.54
2018-06-05T22:21:13.200Z,55.04
2018-06-05T22:23:43.889Z,54.82
2018-06-05T22:26:14.602Z,55.66
2018-06-05T22:28:45.074Z,54.97
2018-06-05T22:31:15.572Z,55.66
2018-06-05T22:33:46.266Z,55.29
2018-06-05T22:36:17.461Z,56.04
2018-06-05T22:38:47.996Z,55.66
2018-06-05T22:41:18.448Z,56.80
2018-06-05T22:43:49.123Z,57.32
2018-06-05T22:46:19.627Z,56.94
2018-06-05T22:48:50.099Z,56.61
2018-06-05T22:51:20.583Z,57.50
2018-06-05T22:53:50.839Z,57.61
2018-06-05T22:56:21.413Z,57.67
2018-06-05T22:58:51.945Z,58.50
2018-06-05T23:01:22.660Z,58.17
2018-06-05T23:03:53.123Z,57.89
2018-06-05T23:06:23.335Z,58.04
2018-06-05T23:08:53.972Z,58.50
2018-06-05T23:11:24.531Z,58.50
2018-06-05T23:13:54.986Z,58.49
2018-06-05T23:16:26.033Z,57.60
2018-06-05T23:18:56.569Z,58.05
2018-06-05T23:21:26.690Z,58.79
2018-06-05T23:23:57.576Z,58.19
2018-06-05T23:26:28.075Z,58.77
2018-06-05T23:28:58.938Z,59.19
2018-06-05T23:31:29.661Z,59.11
2018-06-05T23:34:00.688Z,59.53
2018-06-05T23:36:31.174Z,59.78
2018-06-05T23:39:02.276Z,59.94
2018-06-05T23:41:32.750Z,59.69
2018-06-05T23:44:03.253Z,60.18
2018-06-05T23:46:33.718Z,59.69
2018-06-05T23:49:04.296Z,60.36
2018-06-05T23:51:35.890Z,60.34
2018-06-05T23:54:06.118Z,60.69
2018-06-05T23:56:36.541Z,61.20
2018-06-05T23:59:07.097Z,60.87
